sensor_id;sensor_type;location;lat;lon;timestamp;P1;durP1;ratioP1;P2;durP2;ratioP2
77948;SDS011;67146;51.236;-0.336;2024-03-08T00:01:39;50.53;;;18.85;;
77948;SDS011;67146;51.236;-0.336;2024-03-08T00:04:04;52.58;;;20.42;;
77948;SDS011;67146;51.236;-0.336;2024-03-08T00:06:32;54.08;;;20.48;;
77948;SDS011;67146;51.236;-0.336;2024-03-08T00:08:57;47.70;;;17.63;;
77948;SDS011;67146;51.236;-0.336;2024-03-08T00:11:23;53.97;;;20.10;;
77948;SDS011;67146;51.236;-0.336;2024-03-08T00:13:51;49.40;;;18.80;;
77948;SDS011;67146;51.236;-0.336;2024-03-08T00:16:17;55.00;;;20.40;;
77948;SDS011;67146;51.236;-0.336;2024-03-08T00:18:44;56.10;;;20.45;;
77948;SDS011;67146;51.236;-0.336;2024-03-08T00:21:09;57.20;;;20.65;;
77948;SDS011;67146;51.236;-0.336;2024-03-08T00:23:36;58.65;;;22.60;;
77948;SDS011;67146;51.236;-0.336;2024-03-08T00:26:02;59.67;;;20.98;;
77948;SDS011;67146;51.236;-0.336;2024-03-08T00:28:29;52.22;;;20.27;;
77948;SDS011;67146;51.236;-0.336;2024-03-08T00:30:55;61.33;;;21.40;;
77948;SDS011;67146;51.236;-0.336;2024-03-08T00:33:21;64.55;;;21.67;;
77948;SDS011;67146;51.236;-0.336;2024-03-08T00:35:49;64.55;;;22.27;;
77948;SDS011;67146;51.236;-0.336;2024-03-08T00:38:14;60.17;;;22.13;;
77948;SDS011;67146;51.236;-0.336;2024-03-08T00:40:39;69.00;;;22.38;;
77948;SDS011;67146;51.236;-0.336;2024-03-08T00:43:05;56.10;;;20.30;;
77948;SDS011;67146;51.236;-0.336;2024-03-08T00:45:31;57.20;;;20.80;;
77948;SDS011;67146;51.236;-0.336;2024-03-08T00:47:56;62.70;;;22.15;;
77948;SDS011;67146;51.236;-0.336;2024-03-08T00:50:22;56.40;;;20.50;;
77948;SDS011;67146;51.236;-0.336;2024-03-08T00:52:47;58.22;;;22.48;;
77948;SDS011;67146;51.236;-0.336;2024-03-08T00:55:12;59.03;;;18.27;;
77948;SDS011;67146;51.236;-0.336;2024-03-08T00:57:38;59.67;;;22.43;;
77948;SDS011;67146;51.236;-0.336;2024-03-08T01:00:04;64.03;;;21.55;;
77948;SDS011;67146;51.236;-0.336;2024-03-08T01:02:34;60.40;;;20.00;;
77948;SDS011;67146;51.236;-0.336;2024-03-08T01:05:00;62.55;;;22.27;;
77948;SDS011;67146;51.236;-0.336;2024-03-08T01:07:26;60.28;;;20.70;;
77948;SDS011;67146;51.236;-0.336;2024-03-08T01:09:51;67.00;;;21.83;;
77948;SDS011;67146;51.236;-0.336;2024-03-08T01:12:17;62.40;;;20.70;;
77948;SDS011;67146;51.236;-0.336;2024-03-08T01:14:42;57.25;;;22.30;;
77948;SDS011;67146;51.236;-0.336;2024-03-08T01:17:08;73.82;;;24.42;;
77948;SDS011;67146;51.236;-0.336;2024-03-08T01:19:34;63.42;;;21.70;;
77948;SDS011;67146;51.236;-0.336;2024-03-08T01:22:00;54.30;;;21.33;;
77948;SDS011;67146;51.236;-0.336;2024-03-08T01:24:25;57.17;;;21.75;;
77948;SDS011;67146;51.236;-0.336;2024-03-08T01:26:51;64.10;;;22.40;;
77948;SDS011;67146;51.236;-0.336;2024-03-08T01:29:16;65.55;;;22.83;;
77948;SDS011;67146;51.236;-0.336;2024-03-08T01:31:42;60.00;;;21.42;;
77948;SDS011;67146;51.236;-0.336;2024-03-08T01:34:07;65.97;;;23.90;;
77948;SDS011;67146;51.236;-0.336;2024-03-08T01:36:33;66.55;;;23.02;;
77948;SDS011;67146;51.236;-0.336;2024-03-08T01:38:58;62.38;;;21.77;;
77948;SDS011;67146;51.236;-0.336;2024-03-08T01:41:23;51.53;;;17.65;;
77948;SDS011;67146;51.236;-0.336;2024-03-08T01:43:49;61.45;;;21.75;;
77948;SDS011;67146;51.236;-0.336;2024-03-08T01:46:19;65.68;;;22.98;;
77948;SDS011;67146;51.236;-0.336;2024-03-08T01:48:47;61.63;;;20.65;;
77948;SDS011;67146;51.236;-0.336;2024-03-08T01:51:12;56.38;;;21.63;;
77948;SDS011;67146;51.236;-0.336;2024-03-08T01:53:39;62.50;;;21.88;;
77948;SDS011;67146;51.236;-0.336;2024-03-08T01:56:05;57.53;;;21.38;;
77948;SDS011;67146;51.236;-0.336;2024-03-08T01:58:31;51.25;;;18.35;;
77948;SDS011;67146;51.236;-0.336;2024-03-08T02:00:58;59.55;;;22.20;;
77948;SDS011;67146;51.236;-0.336;2024-03-08T02:03:24;59.20;;;21.77;;
77948;SDS011;67146;51.236;-0.336;2024-03-08T02:05:50;52.15;;;18.25;;
77948;SDS011;67146;51.236;-0.336;2024-03-08T02:08:16;67.18;;;22.77;;
77948;SDS011;67146;51.236;-0.336;2024-03-08T02:10:43;54.90;;;20.63;;
77948;SDS011;67146;51.236;-0.336;2024-03-08T02:13:09;55.03;;;19.77;;
77948;SDS011;67146;51.236;-0.336;2024-03-08T02:15:54;62.08;;;21.60;;
77948;SDS011;67146;51.236;-0.336;2024-03-08T02:18:20;57.10;;;20.10;;
77948;SDS011;67146;51.236;-0.336;2024-03-08T02:20:47;55.83;;;20.85;;
77948;SDS011;67146;51.236;-0.336;2024-03-08T02:23:13;58.00;;;20.88;;
77948;SDS011;67146;51.236;-0.336;2024-03-08T02:25:39;58.97;;;21.52;;
77948;SDS011;67146;51.236;-0.336;2024-03-08T02:28:09;56.08;;;21.10;;
77948;SDS011;67146;51.236;-0.336;2024-03-08T02:30:35;43.90;;;17.23;;
77948;SDS011;67146;51.236;-0.336;2024-03-08T02:33:01;51.72;;;19.88;;
77948;SDS011;67146;51.236;-0.336;2024-03-08T02:35:26;46.23;;;18.73;;
77948;SDS011;67146;51.236;-0.336;2024-03-08T02:37:52;49.90;;;19.37;;
77948;SDS011;67146;51.236;-0.336;2024-03-08T02:40:17;54.80;;;20.13;;
77948;SDS011;67146;51.236;-0.336;2024-03-08T02:42:42;48.55;;;18.77;;
77948;SDS011;67146;51.236;-0.336;2024-03-08T02:45:08;50.65;;;19.10;;
77948;SDS011;67146;51.236;-0.336;2024-03-08T02:47:35;48.50;;;18.88;;
77948;SDS011;67146;51.236;-0.336;2024-03-08T02:50:00;49.40;;;18.80;;
77948;SDS011;67146;51.236;-0.336;2024-03-08T02:52:26;50.65;;;20.15;;
77948;SDS011;67146;51.236;-0.336;2024-03-08T02:54:52;41.88;;;18.17;;
77948;SDS011;67146;51.236;-0.336;2024-03-08T02:57:17;46.80;;;17.83;;
77948;SDS011;67146;51.236;-0.336;2024-03-08T02:59:43;48.00;;;17.88;;
77948;SDS011;67146;51.236;-0.336;2024-03-08T03:02:08;47.50;;;19.15;;
77948;SDS011;67146;51.236;-0.336;2024-03-08T03:04:35;41.67;;;14.80;;
77948;SDS011;67146;51.236;-0.336;2024-03-08T03:07:00;48.72;;;19.85;;
77948;SDS011;67146;51.236;-0.336;2024-03-08T03:09:26;43.65;;;17.05;;
77948;SDS011;67146;51.236;-0.336;2024-03-08T03:11:55;43.92;;;15.80;;
77948;SDS011;67146;51.236;-0.336;2024-03-08T03:14:21;50.80;;;19.95;;
77948;SDS011;67146;51.236;-0.336;2024-03-08T03:16:47;45.65;;;19.25;;
77948;SDS011;67146;51.236;-0.336;2024-03-08T03:19:12;48.65;;;19.52;;
77948;SDS011;67146;51.236;-0.336;2024-03-08T03:21:38;38.65;;;14.20;;
77948;SDS011;67146;51.236;-0.336;2024-03-08T03:24:03;40.13;;;15.98;;
77948;SDS011;67146;51.236;-0.336;2024-03-08T03:26:34;45.70;;;17.67;;
77948;SDS011;67146;51.236;-0.336;2024-03-08T03:29:02;42.63;;;16.27;;
77948;SDS011;67146;51.236;-0.336;2024-03-08T03:31:28;46.55;;;18.10;;
77948;SDS011;67146;51.236;-0.336;2024-03-08T03:33:53;38.28;;;14.25;;
77948;SDS011;67146;51.236;-0.336;2024-03-08T03:36:19;41.38;;;17.48;;
77948;SDS011;67146;51.236;-0.336;2024-03-08T03:38:45;39.72;;;16.42;;
77948;SDS011;67146;51.236;-0.336;2024-03-08T03:41:10;40.45;;;15.73;;
77948;SDS011;67146;51.236;-0.336;2024-03-08T03:43:36;42.88;;;17.48;;
77948;SDS011;67146;51.236;-0.336;2024-03-08T03:46:05;27.83;;;11.15;;
77948;SDS011;67146;51.236;-0.336;2024-03-08T03:48:32;28.30;;;10.07;;
77948;SDS011;67146;51.236;-0.336;2024-03-08T03:50:57;44.83;;;18.40;;
77948;SDS011;67146;51.236;-0.336;2024-03-08T03:53:23;44.35;;;18.33;;
77948;SDS011;67146;51.236;-0.336;2024-03-08T03:55:50;47.33;;;17.85;;
77948;SDS011;67146;51.236;-0.336;2024-03-08T03:58:16;40.00;;;15.65;;
77948;SDS011;67146;51.236;-0.336;2024-03-08T04:00:47;38.75;;;15.63;;
77948;SDS011;67146;51.236;-0.336;2024-03-08T04:03:13;40.47;;;14.15;;
77948;SDS011;67146;51.236;-0.336;2024-03-08T04:05:38;37.38;;;14.52;;
77948;SDS011;67146;51.236;-0.336;2024-03-08T04:08:04;37.33;;;14.68;;
77948;SDS011;67146;51.236;-0.336;2024-03-08T04:10:29;44.20;;;17.63;;
77948;SDS011;67146;51.236;-0.336;2024-03-08T04:12:55;36.88;;;15.10;;
77948;SDS011;67146;51.236;-0.336;2024-03-08T04:15:21;40.03;;;14.55;;
77948;SDS011;67146;51.236;-0.336;2024-03-08T04:17:48;32.30;;;12.73;;
77948;SDS011;67146;51.236;-0.336;2024-03-08T04:20:13;36.50;;;14.90;;
77948;SDS011;67146;51.236;-0.336;2024-03-08T04:22:39;34.95;;;13.95;;
77948;SDS011;67146;51.236;-0.336;2024-03-08T04:25:05;35.95;;;15.98;;
77948;SDS011;67146;51.236;-0.336;2024-03-08T04:27:31;35.47;;;14.18;;
77948;SDS011;67146;51.236;-0.336;2024-03-08T04:29:58;36.72;;;14.85;;
77948;SDS011;67146;51.236;-0.336;2024-03-08T04:32:24;34.45;;;13.70;;
77948;SDS011;67146;51.236;-0.336;2024-03-08T04:34:49;29.20;;;10.45;;
77948;SDS011;67146;51.236;-0.336;2024-03-08T04:37:15;36.38;;;15.23;;
77948;SDS011;67146;51.236;-0.336;2024-03-08T04:39:43;35.55;;;14.65;;
77948;SDS011;67146;51.236;-0.336;2024-03-08T04:42:08;35.60;;;12.30;;
77948;SDS011;67146;51.236;-0.336;2024-03-08T04:44:38;34.05;;;14.57;;
77948;SDS011;67146;51.236;-0.336;2024-03-08T04:47:04;30.27;;;11.52;;
77948;SDS011;67146;51.236;-0.336;2024-03-08T04:49:31;26.88;;;11.45;;
77948;SDS011;67146;51.236;-0.336;2024-03-08T04:52:02;29.85;;;11.25;;
77948;SDS011;67146;51.236;-0.336;2024-03-08T04:54:28;36.78;;;15.40;;
77948;SDS011;67146;51.236;-0.336;2024-03-08T04:56:54;25.58;;;10.85;;
77948;SDS011;67146;51.236;-0.336;2024-03-08T04:59:19;37.20;;;13.50;;
77948;SDS011;67146;51.236;-0.336;2024-03-08T05:01:47;28.73;;;12.32;;
77948;SDS011;67146;51.236;-0.336;2024-03-08T05:04:13;38.33;;;14.47;;
77948;SDS011;67146;51.236;-0.336;2024-03-08T05:06:38;34.25;;;12.95;;
77948;SDS011;67146;51.236;-0.336;2024-03-08T05:09:04;30.98;;;12.02;;
77948;SDS011;67146;51.236;-0.336;2024-03-08T05:11:42;31.40;;;12.10;;
77948;SDS011;67146;51.236;-0.336;2024-03-08T05:14:08;29.33;;;12.75;;
77948;SDS011;67146;51.236;-0.336;2024-03-08T05:16:34;26.85;;;10.95;;
77948;SDS011;67146;51.236;-0.336;2024-03-08T05:19:00;27.23;;;12.63;;
77948;SDS011;67146;51.236;-0.336;2024-03-08T05:21:25;34.35;;;13.65;;
77948;SDS011;67146;51.236;-0.336;2024-03-08T05:23:51;32.00;;;13.25;;
77948;SDS011;67146;51.236;-0.336;2024-03-08T05:26:16;36.30;;;15.48;;
77948;SDS011;67146;51.236;-0.336;2024-03-08T05:28:42;32.85;;;13.70;;
77948;SDS011;67146;51.236;-0.336;2024-03-08T05:31:07;32.70;;;14.68;;
77948;SDS011;67146;51.236;-0.336;2024-03-08T05:33:33;38.72;;;15.18;;
77948;SDS011;67146;51.236;-0.336;2024-03-08T05:36:01;37.42;;;13.60;;
77948;SDS011;67146;51.236;-0.336;2024-03-08T05:38:27;25.90;;;12.05;;
77948;SDS011;67146;51.236;-0.336;2024-03-08T05:40:53;37.63;;;15.98;;
77948;SDS011;67146;51.236;-0.336;2024-03-08T05:43:19;34.72;;;14.35;;
77948;SDS011;67146;51.236;-0.336;2024-03-08T05:45:44;44.92;;;15.07;;
77948;SDS011;67146;51.236;-0.336;2024-03-08T05:48:13;41.10;;;15.40;;
77948;SDS011;67146;51.236;-0.336;2024-03-08T05:50:38;32.55;;;12.90;;
77948;SDS011;67146;51.236;-0.336;2024-03-08T05:53:04;27.80;;;11.52;;
77948;SDS011;67146;51.236;-0.336;2024-03-08T05:55:32;29.10;;;11.93;;
77948;SDS011;67146;51.236;-0.336;2024-03-08T05:58:01;34.72;;;13.73;;
77948;SDS011;67146;51.236;-0.336;2024-03-08T06:00:27;36.08;;;14.55;;
77948;SDS011;67146;51.236;-0.336;2024-03-08T06:02:52;38.97;;;13.55;;
77948;SDS011;67146;51.236;-0.336;2024-03-08T06:05:18;41.17;;;16.48;;
77948;SDS011;67146;51.236;-0.336;2024-03-08T06:07:43;40.80;;;16.08;;
77948;SDS011;67146;51.236;-0.336;2024-03-08T06:10:09;32.88;;;14.77;;
77948;SDS011;67146;51.236;-0.336;2024-03-08T06:12:35;45.00;;;16.40;;
77948;SDS011;67146;51.236;-0.336;2024-03-08T06:15:05;39.83;;;14.52;;
77948;SDS011;67146;51.236;-0.336;2024-03-08T06:17:31;35.10;;;14.55;;
77948;SDS011;67146;51.236;-0.336;2024-03-08T06:19:57;39.27;;;14.93;;
77948;SDS011;67146;51.236;-0.336;2024-03-08T06:22:22;45.07;;;17.17;;
77948;SDS011;67146;51.236;-0.336;2024-03-08T06:24:47;40.53;;;14.30;;
77948;SDS011;67146;51.236;-0.336;2024-03-08T06:27:13;36.60;;;14.17;;
77948;SDS011;67146;51.236;-0.336;2024-03-08T06:29:39;40.38;;;14.05;;
77948;SDS011;67146;51.236;-0.336;2024-03-08T06:32:04;39.90;;;13.98;;
77948;SDS011;67146;51.236;-0.336;2024-03-08T06:34:32;33.40;;;13.43;;
77948;SDS011;67146;51.236;-0.336;2024-03-08T06:36:59;35.03;;;14.02;;
77948;SDS011;67146;51.236;-0.336;2024-03-08T06:39:26;38.05;;;14.15;;
77948;SDS011;67146;51.236;-0.336;2024-03-08T06:41:52;38.70;;;13.85;;
77948;SDS011;67146;51.236;-0.336;2024-03-08T06:44:17;34.25;;;12.90;;
77948;SDS011;67146;51.236;-0.336;2024-03-08T06:46:42;30.33;;;12.60;;
77948;SDS011;67146;51.236;-0.336;2024-03-08T06:49:08;39.53;;;14.82;;
77948;SDS011;67146;51.236;-0.336;2024-03-08T06:51:35;33.40;;;13.07;;
77948;SDS011;67146;51.236;-0.336;2024-03-08T06:54:01;38.28;;;16.13;;
77948;SDS011;67146;51.236;-0.336;2024-03-08T06:56:26;38.72;;;13.57;;
77948;SDS011;67146;51.236;-0.336;2024-03-08T06:58:51;32.47;;;14.30;;
77948;SDS011;67146;51.236;-0.336;2024-03-08T07:01:17;35.83;;;13.73;;
77948;SDS011;67146;51.236;-0.336;2024-03-08T07:03:42;31.90;;;13.40;;
77948;SDS011;67146;51.236;-0.336;2024-03-08T07:06:10;28.02;;;12.73;;
77948;SDS011;67146;51.236;-0.336;2024-03-08T07:08:35;42.67;;;17.55;;
77948;SDS011;67146;51.236;-0.336;2024-03-08T07:11:01;39.35;;;15.23;;
77948;SDS011;67146;51.236;-0.336;2024-03-08T07:13:26;30.20;;;13.23;;
77948;SDS011;67146;51.236;-0.336;2024-03-08T07:15:53;25.05;;;10.40;;
77948;SDS011;67146;51.236;-0.336;2024-03-08T07:18:18;30.20;;;12.95;;
77948;SDS011;67146;51.236;-0.336;2024-03-08T07:20:44;34.42;;;13.48;;
77948;SDS011;67146;51.236;-0.336;2024-03-08T07:23:09;34.58;;;14.52;;
77948;SDS011;67146;51.236;-0.336;2024-03-08T07:25:35;33.85;;;11.80;;
77948;SDS011;67146;51.236;-0.336;2024-03-08T07:28:01;31.58;;;13.30;;
77948;SDS011;67146;51.236;-0.336;2024-03-08T07:30:26;32.88;;;14.73;;
77948;SDS011;67146;51.236;-0.336;2024-03-08T07:33:11;32.70;;;13.23;;
77948;SDS011;67146;51.236;-0.336;2024-03-08T07:38:05;29.77;;;13.15;;
77948;SDS011;67146;51.236;-0.336;2024-03-08T07:40:38;33.17;;;14.32;;
77948;SDS011;67146;51.236;-0.336;2024-03-08T07:43:06;26.77;;;13.05;;
77948;SDS011;67146;51.236;-0.336;2024-03-08T07:45:32;24.13;;;12.00;;
77948;SDS011;67146;51.236;-0.336;2024-03-08T07:47:57;25.83;;;9.90;;
77948;SDS011;67146;51.236;-0.336;2024-03-08T07:50:23;23.65;;;11.45;;
77948;SDS011;67146;51.236;-0.336;2024-03-08T07:52:48;29.60;;;13.63;;
77948;SDS011;67146;51.236;-0.336;2024-03-08T07:55:13;27.02;;;11.93;;
77948;SDS011;67146;51.236;-0.336;2024-03-08T07:57:40;26.27;;;12.32;;
77948;SDS011;67146;51.236;-0.336;2024-03-08T08:00:05;28.05;;;12.10;;
77948;SDS011;67146;51.236;-0.336;2024-03-08T08:02:34;26.63;;;10.60;;
77948;SDS011;67146;51.236;-0.336;2024-03-08T08:05:00;26.27;;;10.68;;
77948;SDS011;67146;51.236;-0.336;2024-03-08T08:07:26;22.98;;;11.35;;
77948;SDS011;67146;51.236;-0.336;2024-03-08T08:09:52;29.42;;;13.30;;
77948;SDS011;67146;51.236;-0.336;2024-03-08T08:12:18;25.73;;;11.80;;
77948;SDS011;67146;51.236;-0.336;2024-03-08T08:14:43;29.33;;;12.63;;
77948;SDS011;67146;51.236;-0.336;2024-03-08T08:17:08;26.40;;;12.07;;
77948;SDS011;67146;51.236;-0.336;2024-03-08T08:19:34;31.00;;;11.63;;
77948;SDS011;67146;51.236;-0.336;2024-03-08T08:22:00;26.55;;;11.80;;
77948;SDS011;67146;51.236;-0.336;2024-03-08T08:24:27;24.15;;;11.40;;
77948;SDS011;67146;51.236;-0.336;2024-03-08T08:26:53;20.92;;;9.23;;
77948;SDS011;67146;51.236;-0.336;2024-03-08T08:29:18;24.60;;;11.25;;
77948;SDS011;67146;51.236;-0.336;2024-03-08T08:31:43;25.23;;;11.98;;
77948;SDS011;67146;51.236;-0.336;2024-03-08T08:34:09;24.75;;;12.23;;
77948;SDS011;67146;51.236;-0.336;2024-03-08T08:36:36;26.02;;;10.80;;
77948;SDS011;67146;51.236;-0.336;2024-03-08T08:39:02;26.90;;;12.13;;
77948;SDS011;67146;51.236;-0.336;2024-03-08T08:41:28;26.08;;;12.40;;
77948;SDS011;67146;51.236;-0.336;2024-03-08T08:43:54;24.20;;;12.80;;
77948;SDS011;67146;51.236;-0.336;2024-03-08T08:46:19;27.08;;;12.20;;
77948;SDS011;67146;51.236;-0.336;2024-03-08T08:48:46;29.27;;;13.15;;
77948;SDS011;67146;51.236;-0.336;2024-03-08T08:51:12;26.80;;;12.00;;
77948;SDS011;67146;51.236;-0.336;2024-03-08T08:53:40;25.35;;;15.25;;
77948;SDS011;67146;51.236;-0.336;2024-03-08T08:56:08;24.98;;;14.23;;
77948;SDS011;67146;51.236;-0.336;2024-03-08T08:58:34;24.23;;;12.85;;
77948;SDS011;67146;51.236;-0.336;2024-03-08T09:00:59;27.70;;;14.63;;
77948;SDS011;67146;51.236;-0.336;2024-03-08T09:03:25;25.63;;;12.90;;
77948;SDS011;67146;51.236;-0.336;2024-03-08T09:05:52;27.13;;;14.38;;
77948;SDS011;67146;51.236;-0.336;2024-03-08T09:08:18;24.83;;;13.35;;
77948;SDS011;67146;51.236;-0.336;2024-03-08T09:10:43;24.65;;;12.07;;
77948;SDS011;67146;51.236;-0.336;2024-03-08T09:13:08;26.45;;;13.23;;
77948;SDS011;67146;51.236;-0.336;2024-03-08T09:15:35;26.45;;;12.45;;
77948;SDS011;67146;51.236;-0.336;2024-03-08T09:18:02;24.30;;;15.02;;
77948;SDS011;67146;51.236;-0.336;2024-03-08T09:20:30;27.30;;;14.98;;
77948;SDS011;67146;51.236;-0.336;2024-03-08T09:22:55;24.70;;;12.20;;
77948;SDS011;67146;51.236;-0.336;2024-03-08T09:25:21;26.13;;;15.93;;
77948;SDS011;67146;51.236;-0.336;2024-03-08T09:27:47;19.33;;;10.23;;
77948;SDS011;67146;51.236;-0.336;2024-03-08T09:30:12;23.20;;;14.23;;
77948;SDS011;67146;51.236;-0.336;2024-03-08T09:32:38;27.60;;;15.00;;
77948;SDS011;67146;51.236;-0.336;2024-03-08T09:35:03;26.35;;;13.63;;
77948;SDS011;67146;51.236;-0.336;2024-03-08T09:37:32;20.90;;;10.85;;
77948;SDS011;67146;51.236;-0.336;2024-03-08T09:39:57;25.47;;;12.33;;
77948;SDS011;67146;51.236;-0.336;2024-03-08T09:42:24;25.20;;;12.60;;
77948;SDS011;67146;51.236;-0.336;2024-03-08T09:44:52;23.58;;;11.65;;
77948;SDS011;67146;51.236;-0.336;2024-03-08T09:47:17;28.08;;;13.77;;
77948;SDS011;67146;51.236;-0.336;2024-03-08T09:49:43;23.73;;;12.38;;
77948;SDS011;67146;51.236;-0.336;2024-03-08T09:52:11;24.48;;;13.45;;
77948;SDS011;67146;51.236;-0.336;2024-03-08T09:54:37;22.08;;;11.45;;
77948;SDS011;67146;51.236;-0.336;2024-03-08T09:57:03;24.77;;;14.18;;
77948;SDS011;67146;51.236;-0.336;2024-03-08T09:59:29;21.85;;;12.05;;
77948;SDS011;67146;51.236;-0.336;2024-03-08T10:02:00;22.95;;;11.20;;
77948;SDS011;67146;51.236;-0.336;2024-03-08T10:04:27;24.10;;;12.75;;
77948;SDS011;67146;51.236;-0.336;2024-03-08T10:09:22;23.08;;;11.27;;
77948;SDS011;67146;51.236;-0.336;2024-03-08T10:11:50;20.75;;;11.98;;
77948;SDS011;67146;51.236;-0.336;2024-03-08T10:14:15;22.10;;;11.48;;
77948;SDS011;67146;51.236;-0.336;2024-03-08T10:16:41;21.90;;;12.45;;
77948;SDS011;67146;51.236;-0.336;2024-03-08T10:19:06;23.33;;;14.87;;
77948;SDS011;67146;51.236;-0.336;2024-03-08T10:21:32;22.20;;;12.57;;
77948;SDS011;67146;51.236;-0.336;2024-03-08T10:23:58;21.73;;;10.95;;
77948;SDS011;67146;51.236;-0.336;2024-03-08T10:26:24;24.50;;;11.00;;
77948;SDS011;67146;51.236;-0.336;2024-03-08T10:28:50;23.77;;;12.20;;
77948;SDS011;67146;51.236;-0.336;2024-03-08T10:31:17;20.20;;;9.30;;
77948;SDS011;67146;51.236;-0.336;2024-03-08T10:33:44;22.52;;;10.63;;
77948;SDS011;67146;51.236;-0.336;2024-03-08T10:36:10;17.40;;;9.88;;
77948;SDS011;67146;51.236;-0.336;2024-03-08T10:38:36;22.77;;;13.05;;
77948;SDS011;67146;51.236;-0.336;2024-03-08T10:43:31;19.75;;;9.85;;
77948;SDS011;67146;51.236;-0.336;2024-03-08T10:48:47;20.73;;;11.68;;
77948;SDS011;67146;51.236;-0.336;2024-03-08T10:51:14;17.67;;;12.32;;
77948;SDS011;67146;51.236;-0.336;2024-03-08T10:53:40;21.83;;;12.48;;
77948;SDS011;67146;51.236;-0.336;2024-03-08T10:56:06;20.08;;;10.05;;
77948;SDS011;67146;51.236;-0.336;2024-03-08T10:58:32;20.33;;;12.38;;
77948;SDS011;67146;51.236;-0.336;2024-03-08T11:00:59;21.55;;;10.30;;
77948;SDS011;67146;51.236;-0.336;2024-03-08T11:06:09;17.80;;;10.80;;
77948;SDS011;67146;51.236;-0.336;2024-03-08T11:11:05;17.95;;;9.85;;
77948;SDS011;67146;51.236;-0.336;2024-03-08T11:16:07;20.17;;;12.48;;
77948;SDS011;67146;51.236;-0.336;2024-03-08T11:18:34;16.08;;;8.20;;
77948;SDS011;67146;51.236;-0.336;2024-03-08T11:21:18;19.35;;;8.23;;
77948;SDS011;67146;51.236;-0.336;2024-03-08T11:23:43;18.75;;;9.23;;
77948;SDS011;67146;51.236;-0.336;2024-03-08T11:26:24;16.88;;;10.93;;
77948;SDS011;67146;51.236;-0.336;2024-03-08T11:28:50;22.33;;;12.43;;
77948;SDS011;67146;51.236;-0.336;2024-03-08T11:33:47;20.08;;;11.70;;
77948;SDS011;67146;51.236;-0.336;2024-03-08T11:36:20;18.08;;;11.20;;
77948;SDS011;67146;51.236;-0.336;2024-03-08T11:38:47;19.73;;;9.85;;
77948;SDS011;67146;51.236;-0.336;2024-03-08T11:41:14;16.92;;;10.23;;
77948;SDS011;67146;51.236;-0.336;2024-03-08T11:43:40;19.48;;;12.02;;
77948;SDS011;67146;51.236;-0.336;2024-03-08T11:46:09;18.40;;;11.68;;
77948;SDS011;67146;51.236;-0.336;2024-03-08T11:48:35;15.63;;;9.80;;
77948;SDS011;67146;51.236;-0.336;2024-03-08T11:51:01;18.27;;;10.47;;
77948;SDS011;67146;51.236;-0.336;2024-03-08T11:53:26;17.85;;;8.18;;
77948;SDS011;67146;51.236;-0.336;2024-03-08T11:55:52;16.95;;;8.98;;
77948;SDS011;67146;51.236;-0.336;2024-03-08T11:58:17;16.50;;;10.38;;
77948;SDS011;67146;51.236;-0.336;2024-03-08T12:00:43;15.47;;;8.40;;
77948;SDS011;67146;51.236;-0.336;2024-03-08T12:05:37;14.90;;;6.72;;
77948;SDS011;67146;51.236;-0.336;2024-03-08T12:08:03;14.82;;;6.93;;
77948;SDS011;67146;51.236;-0.336;2024-03-08T12:10:30;15.85;;;10.45;;
77948;SDS011;67146;51.236;-0.336;2024-03-08T12:12:56;16.80;;;9.35;;
77948;SDS011;67146;51.236;-0.336;2024-03-08T12:15:28;16.50;;;9.25;;
77948;SDS011;67146;51.236;-0.336;2024-03-08T12:17:54;17.13;;;11.07;;
77948;SDS011;67146;51.236;-0.336;2024-03-08T12:20:27;14.50;;;8.60;;
77948;SDS011;67146;51.236;-0.336;2024-03-08T12:22:56;16.83;;;9.65;;
77948;SDS011;67146;51.236;-0.336;2024-03-08T12:25:21;17.00;;;9.27;;
77948;SDS011;67146;51.236;-0.336;2024-03-08T12:27:47;18.08;;;8.98;;
77948;SDS011;67146;51.236;-0.336;2024-03-08T12:30:22;15.65;;;8.40;;
77948;SDS011;67146;51.236;-0.336;2024-03-08T12:35:25;19.27;;;8.32;;
77948;SDS011;67146;51.236;-0.336;2024-03-08T12:37:54;17.40;;;9.45;;
77948;SDS011;67146;51.236;-0.336;2024-03-08T12:40:28;17.52;;;9.60;;
77948;SDS011;67146;51.236;-0.336;2024-03-08T12:42:57;17.15;;;10.00;;
77948;SDS011;67146;51.236;-0.336;2024-03-08T12:45:24;16.77;;;10.52;;
77948;SDS011;67146;51.236;-0.336;2024-03-08T12:47:55;17.60;;;11.30;;
77948;SDS011;67146;51.236;-0.336;2024-03-08T12:50:21;18.00;;;10.93;;
77948;SDS011;67146;51.236;-0.336;2024-03-08T12:52:47;17.50;;;9.18;;
77948;SDS011;67146;51.236;-0.336;2024-03-08T12:55:17;17.08;;;10.82;;
77948;SDS011;67146;51.236;-0.336;2024-03-08T12:57:43;18.73;;;10.85;;
77948;SDS011;67146;51.236;-0.336;2024-03-08T13:00:09;19.13;;;10.23;;
77948;SDS011;67146;51.236;-0.336;2024-03-08T13:02:38;17.98;;;10.15;;
77948;SDS011;67146;51.236;-0.336;2024-03-08T13:05:04;18.75;;;8.23;;
77948;SDS011;67146;51.236;-0.336;2024-03-08T13:07:30;16.77;;;8.95;;
77948;SDS011;67146;51.236;-0.336;2024-03-08T13:09:56;17.70;;;11.73;;
77948;SDS011;67146;51.236;-0.336;2024-03-08T13:12:24;20.73;;;10.43;;
77948;SDS011;67146;51.236;-0.336;2024-03-08T13:14:50;16.05;;;8.30;;
77948;SDS011;67146;51.236;-0.336;2024-03-08T13:17:16;17.90;;;9.05;;
77948;SDS011;67146;51.236;-0.336;2024-03-08T13:19:43;17.73;;;9.45;;
77948;SDS011;67146;51.236;-0.336;2024-03-08T13:22:09;18.13;;;8.23;;
77948;SDS011;67146;51.236;-0.336;2024-03-08T13:24:40;20.52;;;12.02;;
77948;SDS011;67146;51.236;-0.336;2024-03-08T13:27:07;19.45;;;11.30;;
77948;SDS011;67146;51.236;-0.336;2024-03-08T13:29:44;19.63;;;8.50;;
77948;SDS011;67146;51.236;-0.336;2024-03-08T13:32:13;18.05;;;10.43;;
77948;SDS011;67146;51.236;-0.336;2024-03-08T13:34:43;17.95;;;10.95;;
77948;SDS011;67146;51.236;-0.336;2024-03-08T13:37:10;18.45;;;9.68;;
77948;SDS011;67146;51.236;-0.336;2024-03-08T13:39:36;21.67;;;11.38;;
77948;SDS011;67146;51.236;-0.336;2024-03-08T13:42:11;18.13;;;10.50;;
77948;SDS011;67146;51.236;-0.336;2024-03-08T13:44:47;19.70;;;11.98;;
77948;SDS011;67146;51.236;-0.336;2024-03-08T13:47:16;20.70;;;11.60;;
77948;SDS011;67146;51.236;-0.336;2024-03-08T13:49:42;20.45;;;11.10;;
77948;SDS011;67146;51.236;-0.336;2024-03-08T13:52:08;22.23;;;13.40;;
77948;SDS011;67146;51.236;-0.336;2024-03-08T13:54:34;24.05;;;11.52;;
77948;SDS011;67146;51.236;-0.336;2024-03-08T13:57:00;19.73;;;11.57;;
77948;SDS011;67146;51.236;-0.336;2024-03-08T13:59:28;19.60;;;10.75;;
77948;SDS011;67146;51.236;-0.336;2024-03-08T14:01:55;21.73;;;13.00;;
77948;SDS011;67146;51.236;-0.336;2024-03-08T14:04:21;20.67;;;12.02;;
77948;SDS011;67146;51.236;-0.336;2024-03-08T14:06:46;22.75;;;11.85;;
77948;SDS011;67146;51.236;-0.336;2024-03-08T14:09:12;24.80;;;13.00;;
77948;SDS011;67146;51.236;-0.336;2024-03-08T14:11:42;20.38;;;9.85;;
77948;SDS011;67146;51.236;-0.336;2024-03-08T14:14:09;24.33;;;14.57;;
77948;SDS011;67146;51.236;-0.336;2024-03-08T14:16:37;24.27;;;13.80;;
77948;SDS011;67146;51.236;-0.336;2024-03-08T14:19:03;26.85;;;15.38;;
77948;SDS011;67146;51.236;-0.336;2024-03-08T14:21:30;26.13;;;13.77;;
77948;SDS011;67146;51.236;-0.336;2024-03-08T14:23:56;25.40;;;13.48;;
77948;SDS011;67146;51.236;-0.336;2024-03-08T14:26:22;24.83;;;13.85;;
77948;SDS011;67146;51.236;-0.336;2024-03-08T14:28:47;20.27;;;11.90;;
77948;SDS011;67146;51.236;-0.336;2024-03-08T14:31:14;24.90;;;15.60;;
77948;SDS011;67146;51.236;-0.336;2024-03-08T14:33:44;24.65;;;13.77;;